Time,TemperatureF,DewpointF,PressureIn,WindDirection,WindDirectionDegrees,WindSpeedMPH,WindSpeedGustMPH,Humidity,HourlyPrecipIn,Conditions,Clouds,dailyrainin,SoftwareType,DateUTC
2013-04-03 00:06:00,34.9,29.7,30.24,NNW,337,0.0,-999.0,81,-99.99,,,0.00,Acu-Link.com,2013-04-03 05:06:00,
2013-04-03 00:21:00,34.5,29.0,30.23,NW,315,0.0,-999.0,80,-99.99,,,0.00,Acu-Link.com,2013-04-03 05:21:00,
2013-04-03 00:36:00,34.5,29.9,30.24,ESE,112,0.0,-999.0,83,-99.99,,,0.00,Acu-Link.com,2013-04-03 05:36:00,
2013-04-03 00:51:00,34.2,30.2,30.24,SSE,157,0.0,-999.0,85,-99.99,,,0.00,Acu-Link.com,2013-04-03 05:51:00,
2013-04-03 01:22:00,33.8,33.5,30.24,South,180,0.0,-999.0,99,-99.99,,,0.00,Acu-Link.com,2013-04-03 06:22:00,
2013-04-03 01:37:00,36.5,36.2,30.25,SSW,202,0.0,-999.0,99,-99.99,,,0.00,Acu-Link.com,2013-04-03 06:37:00,
2013-04-03 01:52:00,32.7,32.5,30.23,SSW,202,0.0,-999.0,99,-99.99,,,0.00,Acu-Link.com,2013-04-03 06:52:00,
2013-04-03 02:07:00,32.5,32.3,30.23,East,90,0.0,-999.0,99,-99.99,,,0.00,Acu-Link.com,2013-04-03 07:07:00,
2013-04-03 02:37:00,32.0,31.8,30.23,SSE,157,0.0,-999.0,99,-99.99,,,0.00,Acu-Link.com,2013-04-03 07:37:00,
2013-04-03 02:52:00,31.6,31.4,30.22,NNE,22,0.0,-999.0,99,-99.99,,,0.00,Acu-Link.com,2013-04-03 07:52:00,
2013-04-03 03:08:00,31.5,31.3,30.21,NE,45,0.0,-999.0,99,-99.99,,,0.00,Acu-Link.com,2013-04-03 08:08:00,
2013-04-03 03:23:00,31.8,31.6,30.22,South,180,0.0,-999.0,99,-99.99,,,0.00,Acu-Link.com,2013-04-03 08:23:00,
2013-04-03 03:38:00,31.5,31.3,30.22,SSE,157,2.2,-999.0,99,-99.99,,,0.00,Acu-Link.com,2013-04-03 08:38:00,
2013-04-03 03:53:00,31.3,31.1,30.23,SSW,202,0.0,-999.0,99,-99.99,,,0.00,Acu-Link.com,2013-04-03 08:53:00,
2013-04-03 04:09:00,30.4,30.2,30.23,SSE,157,0.0,-999.0,99,-99.99,,,0.00,Acu-Link.com,2013-04-03 09:09:00,
2013-04-03 04:24:00,30.0,29.8,30.21,North,0,1.7,-999.0,99,-99.99,,,0.00,Acu-Link.com,2013-04-03 09:24:00,
2013-04-03 04:39:00,35.1,34.8,30.21,NNE,22,0.0,-999.0,99,-99.99,,,0.00,Acu-Link.com,2013-04-03 09:39:00,
2013-04-03 04:54:00,30.2,30.0,30.21,SE,135,0.0,-999.0,99,-99.99,,,0.00,Acu-Link.com,2013-04-03 09:54:00,
2013-04-03 05:09:00,29.7,29.5,30.21,South,180,0.0,-999.0,99,-99.99,,,0.00,Acu-Link.com,2013-04-03 10:09:00,
2013-04-03 05:24:00,28.9,28.7,30.22,SSE,157,0.0,-999.0,99,-99.99,,,0.00,Acu-Link.com,2013-04-03 10:24:00,
2013-04-03 05:39:00,28.8,28.6,30.23,South,180,0.0,-999.0,99,-99.99,,,0.00,Acu-Link.com,2013-04-03 10:39:00,
2013-04-03 05:54:00,29.1,28.9,30.23,SSW,202,0.0,-999.0,99,-99.99,,,0.00,Acu-Link.com,2013-04-03 10:54:00,
2013-04-03 06:10:00,28.6,28.4,30.25,SSW,202,0.0,-999.0,99,-99.99,,,0.00,Acu-Link.com,2013-04-03 11:10:00,
2013-04-03 06:25:00,29.5,29.3,30.26,SSW,202,0.0,-999.0,99,-99.99,,,0.00,Acu-Link.com,2013-04-03 11:25:00,
2013-04-03 06:40:00,32.0,31.0,30.28,SSW,202,0.0,-999.0,96,-99.99,,,0.00,Acu-Link.com,2013-04-03 11:40:00,
2013-04-03 06:55:00,28.9,23.5,30.29,SSE,157,0.0,-999.0,80,-99.99,,,0.00,Acu-Link.com,2013-04-03 11:55:00,
2013-04-03 07:10:00,29.3,24.5,30.30,SSE,157,0.0,-999.0,82,-99.99,,,0.00,Acu-Link.com,2013-04-03 12:10:00,
2013-04-03 07:25:00,42.8,33.0,30.30,South,180,0.0,-999.0,68,-99.99,,,0.00,Acu-Link.com,2013-04-03 12:25:00,
2013-04-03 07:40:00,36.0,23.5,30.30,ESE,112,0.0,-999.0,60,-99.99,,,0.00,Acu-Link.com,2013-04-03 12:40:00,
2013-04-03 07:55:00,39.6,26.9,30.31,NNW,337,0.0,-999.0,60,-99.99,,,0.00,Acu-Link.com,2013-04-03 12:55:00,
2013-04-03 08:10:00,39.6,39.3,30.32,South,180,0.0,-999.0,99,-99.99,,,0.00,Acu-Link.com,2013-04-03 13:10:00,
2013-04-03 08:26:00,39.9,33.6,30.32,ENE,67,2.2,-999.0,78,-99.99,,,0.00,Acu-Link.com,2013-04-03 13:26:00,
2013-04-03 08:41:00,40.5,30.8,30.31,East,90,3.7,-999.0,68,-99.99,,,0.00,Acu-Link.com,2013-04-03 13:41:00,
2013-04-03 09:26:00,44.8,30.5,30.30,ENE,67,2.7,-999.0,57,-99.99,,,0.00,Acu-Link.com,2013-04-03 14:26:00,
2013-04-03 09:41:00,47.1,30.9,30.30,ESE,112,4.2,-999.0,53,-99.99,,,0.00,Acu-Link.com,2013-04-03 14:41:00,
2013-04-03 10:11:00,48.9,29.6,30.29,ENE,67,7.8,-999.0,47,-99.99,,,0.00,Acu-Link.com,2013-04-03 15:11:00,
2013-04-03 10:26:00,49.3,29.4,30.29,NE,45,6.3,-999.0,46,-99.99,,,0.00,Acu-Link.com,2013-04-03 15:26:00,
2013-04-03 10:42:00,50.0,27.2,30.30,NNE,22,5.3,-999.0,41,-99.99,,,0.00,Acu-Link.com,2013-04-03 15:42:00,
2013-04-03 10:57:00,50.2,26.8,30.30,NE,45,5.8,-999.0,40,-99.99,,,0.00,Acu-Link.com,2013-04-03 15:57:00,
2013-04-03 11:12:00,51.3,27.2,30.30,SE,135,5.8,-999.0,39,-99.99,,,0.00,Acu-Link.com,2013-04-03 16:12:00,
2013-04-03 11:27:00,51.1,26.4,30.29,East,90,4.7,-999.0,38,-99.99,,,0.00,Acu-Link.com,2013-04-03 16:27:00,
2013-04-03 11:42:00,51.8,24.3,30.29,ENE,67,9.4,-999.0,34,-99.99,,,0.00,Acu-Link.com,2013-04-03 16:42:00,
2013-04-03 12:12:00,52.2,27.4,30.27,ESE,112,6.8,-999.0,38,-99.99,,,0.00,Acu-Link.com,2013-04-03 17:12:00,
2013-04-03 12:27:00,53.2,26.9,30.27,ENE,67,3.7,-999.0,36,-99.99,,,0.00,Acu-Link.com,2013-04-03 17:27:00,
2013-04-03 12:42:00,52.3,28.1,30.26,ENE,67,7.8,-999.0,39,-99.99,,,0.00,Acu-Link.com,2013-04-03 17:42:00,
2013-04-03 12:58:00,53.2,27.6,30.26,NE,45,7.3,-999.0,37,-99.99,,,0.00,Acu-Link.com,2013-04-03 17:58:00,
2013-04-03 13:13:00,53.6,28.0,30.26,NE,45,5.8,-999.0,37,-99.99,,,0.00,Acu-Link.com,2013-04-03 18:13:00,
2013-04-03 13:28:00,54.7,28.3,30.25,East,90,4.7,-999.0,36,-99.99,,,0.00,Acu-Link.com,2013-04-03 18:28:00,
2013-04-03 13:43:00,53.4,26.4,30.25,NE,45,4.7,-999.0,35,-99.99,,,0.00,Acu-Link.com,2013-04-03 18:43:00,
2013-04-03 15:14:00,54.3,29.2,30.24,ESE,112,5.3,-999.0,38,-99.99,,,0.00,Acu-Link.com,2013-04-03 20:14:00,
2013-04-03 15:29:00,54.1,28.4,30.24,East,90,7.8,-999.0,37,-99.99,,,0.00,Acu-Link.com,2013-04-03 20:29:00,
2013-04-03 15:44:00,53.4,27.1,30.23,East,90,7.3,-999.0,36,-99.99,,,0.00,Acu-Link.com,2013-04-03 20:44:00,
2013-04-03 16:14:00,53.6,28.6,30.22,East,90,9.9,-999.0,38,-99.99,,,0.00,Acu-Link.com,2013-04-03 21:14:00,
2013-04-03 16:29:00,53.6,28.6,30.21,East,90,5.8,-999.0,38,-99.99,,,0.00,Acu-Link.com,2013-04-03 21:29:00,
2013-04-03 16:44:00,53.4,29.7,30.20,NNE,22,4.2,-999.0,40,-99.99,,,0.00,Acu-Link.com,2013-04-03 21:44:00,
2013-04-03 16:59:00,53.4,28.4,30.21,SE,135,4.7,-999.0,38,-99.99,,,0.00,Acu-Link.com,2013-04-03 21:59:00,
2013-04-03 17:14:00,52.9,28.0,30.21,ENE,67,8.9,-999.0,38,-99.99,,,0.00,Acu-Link.com,2013-04-03 22:14:00,
2013-04-03 17:30:00,53.1,29.4,30.21,ESE,112,3.2,-999.0,40,-99.99,,,0.00,Acu-Link.com,2013-04-03 22:30:00,
2013-04-03 17:45:00,52.9,29.2,30.20,ENE,67,5.8,-999.0,40,-99.99,,,0.00,Acu-Link.com,2013-04-03 22:45:00,
2013-04-03 18:00:00,53.1,28.8,30.20,ENE,67,5.8,-999.0,39,-99.99,,,0.00,Acu-Link.com,2013-04-03 23:00:00,
2013-04-03 18:15:00,52.0,29.6,30.20,East,90,4.7,-999.0,42,-99.99,,,0.00,Acu-Link.com,2013-04-03 23:15:00,
2013-04-03 18:30:00,51.4,29.1,30.20,NNE,22,4.2,-999.0,42,-99.99,,,0.00,Acu-Link.com,2013-04-03 23:30:00,
2013-04-03 18:45:00,50.9,28.6,30.19,ESE,112,3.2,-999.0,42,-99.99,,,0.00,Acu-Link.com,2013-04-03 23:45:00,
2013-04-03 19:01:00,50.4,27.6,30.19,East,90,4.2,-999.0,41,-99.99,,,0.00,Acu-Link.com,2013-04-04 00:01:00,
2013-04-03 19:16:00,49.6,28.0,30.19,ESE,112,4.7,-999.0,43,-99.99,,,0.00,Acu-Link.com,2013-04-04 00:16:00,
2013-04-03 20:01:00,47.8,27.5,30.20,ENE,67,1.7,-999.0,45,-99.99,,,0.00,Acu-Link.com,2013-04-04 01:01:00,
2013-04-03 20:16:00,47.5,28.3,30.19,NNE,22,0.0,-999.0,47,-99.99,,,0.00,Acu-Link.com,2013-04-04 01:16:00,
2013-04-03 20:31:00,46.6,28.5,30.20,NW,315,1.1,-999.0,49,-99.99,,,0.00,Acu-Link.com,2013-04-04 01:31:00,
2013-04-03 20:46:00,45.9,28.8,30.20,NE,45,1.7,-999.0,51,-99.99,,,0.00,Acu-Link.com,2013-04-04 01:46:00,
2013-04-03 21:01:00,45.5,30.3,30.20,NNE,22,0.0,-999.0,55,-99.99,,,0.00,Acu-Link.com,2013-04-04 02:01:00,
2013-04-03 21:32:00,44.8,29.6,30.19,NE,45,1.7,-999.0,55,-99.99,,,0.00,Acu-Link.com,2013-04-04 02:32:00,
2013-04-03 21:47:00,44.8,29.6,30.20,NE,45,1.7,-999.0,55,-99.99,,,0.00,Acu-Link.com,2013-04-04 02:47:00,
2013-04-03 22:02:00,44.8,29.6,30.19,ENE,67,2.2,-999.0,55,-99.99,,,0.00,Acu-Link.com,2013-04-04 03:02:00,
2013-04-03 22:17:00,44.8,29.6,30.19,ENE,67,2.7,-999.0,55,-99.99,,,0.00,Acu-Link.com,2013-04-04 03:17:00,
2013-04-03 22:32:00,45.0,29.8,30.19,ENE,67,2.7,-999.0,55,-99.99,,,0.00,Acu-Link.com,2013-04-04 03:32:00,
2013-04-03 23:02:00,44.4,29.3,30.18,ENE,67,4.2,-999.0,55,-99.99,,,0.00,Acu-Link.com,2013-04-04 04:02:00,
2013-04-03 23:17:00,44.1,29.4,30.17,ENE,67,2.2,-999.0,56,-99.99,,,0.00,Acu-Link.com,2013-04-04 04:17:00,
2013-04-03 23:33:00,43.9,29.2,30.17,ENE,67,2.2,-999.0,56,-99.99,,,0.00,Acu-Link.com,2013-04-04 04:33:00,
2013-04-03 23:48:00,43.9,29.7,30.17,ENE,67,3.7,-999.0,57,-99.99,,,0.00,Acu-Link.com,2013-04-04 04:48:00,